This is the latest recevied weather packets stored in our database for station/object N5YHM-13. If no packets are shown the sender has not sent any weather packets the latest 10 day(s).
| Time | Temp. | Humidity | Pressure | Rain* | Wind** | Luminosity | Snow |
|---|---|---|---|---|---|---|---|
| 1787694650 | 24.44° C | 99% | 1017.1 hPa | 0 mm | - | 8 W/m² | - |
| 1787694345 | 23.89° C | 99% | 1016.9 hPa | 0 mm | - | 8 W/m² | - |
| 1787694041 | 23.89° C | 99% | 1016.7 hPa | 0 mm | - | 9 W/m² | - |
| 1787693737 | 23.89° C | 99% | 1016.7 hPa | 1.78 mm | - | 8 W/m² | - |
| 1787693433 | 23.89° C | 99% | 1016.5 hPa | 8.89 mm | - | 7 W/m² | - |
| 1787693129 | 23.89° C | 99% | 1016.5 hPa | 18.54 mm | - | 6 W/m² | - |
| 1787692825 | 23.89° C | 99% | 1016.9 hPa | 13.72 mm | - | 6 W/m² | - |
| 1787692525 | 23.89° C | 99% | 1017.3 hPa | 1.78 mm | - | 5 W/m² | - |
| 1787692224 | 23.89° C | 99% | 1017.4 hPa | 11.94 mm | - | 4 W/m² | - |
| 1787691919 | 24.44° C | 98% | 1018.5 hPa | 37.85 mm | - | 2 W/m² | - |
| 1787691618 | 25.56° C | 96% | 1017.5 hPa | 22.86 mm | - | 2 W/m² | - |
| 1787691316 | 28.33° C | 91% | 1017.1 hPa | 0 mm | - | 2 W/m² | - |
| 1787691011 | 30° C | 85% | 1016.9 hPa | 0 mm | - | 1 W/m² | - |
| 1787690707 | 30° C | 86% | 1016.7 hPa | 0 mm | - | 8 W/m² | - |
| 1787690401 | 30.56° C | 85% | 1016.4 hPa | 0 mm | - | 12 W/m² | - |
| 1787690098 | 31.11° C | 82% | 1016.2 hPa | 0 mm | - | 29 W/m² | - |
| 1787689793 | 32.22° C | 80% | 1016.5 hPa | 0 mm | - | 27 W/m² | - |
| 1787689489 | 32.78° C | 75% | 1016.9 hPa | 0 mm | - | 36 W/m² | - |
| 1787689188 | 32.22° C | 77% | 1016.7 hPa | 0 mm | - | 68 W/m² | - |
| 1787688884 | 32.78° C | 76% | 1016.7 hPa | 0 mm | - | 35 W/m² | - |
| 1787688580 | 32.78° C | 74% | 1016.7 hPa | 0 mm | - | 33 W/m² | - |
| 1787688279 | 32.22° C | 75% | 1016.6 hPa | 0 mm | - | 31 W/m² | - |
| 1787687974 | 32.22° C | 77% | 1016.7 hPa | 0 mm | - | 27 W/m² | - |
| 1787687670 | 32.78° C | 76% | 1016.6 hPa | 0 mm | - | 26 W/m² | - |
| 1787687366 | 32.78° C | 75% | 1016.8 hPa | 0 mm | - | 21 W/m² | - |
* Rain latest hour (hover to see other rain measurements)
** Current wind speed in m/s (hover to see current wind gust speed)